sensor_id;sensor_type;location;lat;lon;timestamp;P1;durP1;ratioP1;P2;durP2;ratioP2
2850;SDS011;1433;49.976;8.342;2024-02-21T00:00:57;5.27;;;4.00;;
2850;SDS011;1433;49.976;8.342;2024-02-21T00:03:23;8.40;;;3.97;;
2850;SDS011;1433;49.976;8.342;2024-02-21T00:05:49;4.73;;;4.33;;
2850;SDS011;1433;49.976;8.342;2024-02-21T00:08:15;7.93;;;4.93;;
2850;SDS011;1433;49.976;8.342;2024-02-21T00:10:40;7.43;;;3.50;;
2850;SDS011;1433;49.976;8.342;2024-02-21T00:13:06;8.20;;;5.00;;
2850;SDS011;1433;49.976;8.342;2024-02-21T00:15:32;5.50;;;3.57;;
2850;SDS011;1433;49.976;8.342;2024-02-21T00:17:58;11.73;;;4.67;;
2850;SDS011;1433;49.976;8.342;2024-02-21T00:20:24;9.03;;;5.13;;
2850;SDS011;1433;49.976;8.342;2024-02-21T00:22:51;6.33;;;4.00;;
2850;SDS011;1433;49.976;8.342;2024-02-21T00:25:16;10.07;;;4.77;;
2850;SDS011;1433;49.976;8.342;2024-02-21T00:27:43;12.43;;;7.00;;
2850;SDS011;1433;49.976;8.342;2024-02-21T00:30:08;7.43;;;4.37;;
2850;SDS011;1433;49.976;8.342;2024-02-21T00:32:35;4.67;;;4.00;;
2850;SDS011;1433;49.976;8.342;2024-02-21T00:35:01;15.33;;;5.23;;
2850;SDS011;1433;49.976;8.342;2024-02-21T00:37:27;7.40;;;4.70;;
2850;SDS011;1433;49.976;8.342;2024-02-21T00:39:54;9.17;;;5.27;;
2850;SDS011;1433;49.976;8.342;2024-02-21T00:42:20;6.97;;;4.87;;
2850;SDS011;1433;49.976;8.342;2024-02-21T00:44:46;14.03;;;4.60;;
2850;SDS011;1433;49.976;8.342;2024-02-21T00:47:12;8.30;;;5.33;;
2850;SDS011;1433;49.976;8.342;2024-02-21T00:49:38;8.13;;;5.60;;
2850;SDS011;1433;49.976;8.342;2024-02-21T00:52:04;13.00;;;7.77;;
2850;SDS011;1433;49.976;8.342;2024-02-21T00:54:30;9.17;;;6.40;;
2850;SDS011;1433;49.976;8.342;2024-02-21T00:56:56;11.00;;;4.03;;
2850;SDS011;1433;49.976;8.342;2024-02-21T00:59:22;6.27;;;4.33;;
2850;SDS011;1433;49.976;8.342;2024-02-21T01:01:47;7.73;;;5.93;;
2850;SDS011;1433;49.976;8.342;2024-02-21T01:04:13;7.10;;;4.33;;
2850;SDS011;1433;49.976;8.342;2024-02-21T01:06:39;9.33;;;5.30;;
2850;SDS011;1433;49.976;8.342;2024-02-21T01:09:08;8.60;;;6.13;;
2850;SDS011;1433;49.976;8.342;2024-02-21T01:11:33;12.83;;;5.50;;
2850;SDS011;1433;49.976;8.342;2024-02-21T01:13:59;7.97;;;3.93;;
2850;SDS011;1433;49.976;8.342;2024-02-21T01:16:25;11.20;;;5.60;;
2850;SDS011;1433;49.976;8.342;2024-02-21T01:18:51;13.87;;;5.87;;
2850;SDS011;1433;49.976;8.342;2024-02-21T01:21:17;6.30;;;5.20;;
2850;SDS011;1433;49.976;8.342;2024-02-21T01:23:43;9.13;;;6.77;;
2850;SDS011;1433;49.976;8.342;2024-02-21T01:26:09;8.73;;;5.20;;
2850;SDS011;1433;49.976;8.342;2024-02-21T01:28:38;14.83;;;4.97;;
2850;SDS011;1433;49.976;8.342;2024-02-21T01:31:04;6.27;;;4.10;;
2850;SDS011;1433;49.976;8.342;2024-02-21T01:33:30;5.13;;;4.00;;
2850;SDS011;1433;49.976;8.342;2024-02-21T01:36:02;10.13;;;5.47;;
2850;SDS011;1433;49.976;8.342;2024-02-21T01:38:29;6.63;;;4.53;;
2850;SDS011;1433;49.976;8.342;2024-02-21T01:40:57;5.60;;;4.03;;
2850;SDS011;1433;49.976;8.342;2024-02-21T01:43:22;5.23;;;4.73;;
2850;SDS011;1433;49.976;8.342;2024-02-21T01:45:49;13.60;;;5.13;;
2850;SDS011;1433;49.976;8.342;2024-02-21T01:48:18;6.97;;;4.93;;
2850;SDS011;1433;49.976;8.342;2024-02-21T01:50:45;6.67;;;4.60;;
2850;SDS011;1433;49.976;8.342;2024-02-21T01:53:16;8.03;;;4.70;;
2850;SDS011;1433;49.976;8.342;2024-02-21T01:55:45;10.57;;;4.80;;
2850;SDS011;1433;49.976;8.342;2024-02-21T01:58:15;9.73;;;4.87;;
2850;SDS011;1433;49.976;8.342;2024-02-21T02:00:41;6.13;;;5.53;;
2850;SDS011;1433;49.976;8.342;2024-02-21T02:05:48;11.10;;;4.33;;
2850;SDS011;1433;49.976;8.342;2024-02-21T02:08:16;7.13;;;5.07;;
2850;SDS011;1433;49.976;8.342;2024-02-21T02:10:44;6.43;;;5.83;;
2850;SDS011;1433;49.976;8.342;2024-02-21T02:13:11;7.60;;;4.17;;
2850;SDS011;1433;49.976;8.342;2024-02-21T02:15:37;11.10;;;4.53;;
2850;SDS011;1433;49.976;8.342;2024-02-21T02:18:07;5.23;;;4.30;;
2850;SDS011;1433;49.976;8.342;2024-02-21T02:20:33;6.00;;;3.53;;
2850;SDS011;1433;49.976;8.342;2024-02-21T02:23:00;5.70;;;3.87;;
2850;SDS011;1433;49.976;8.342;2024-02-21T02:25:42;7.20;;;3.60;;
2850;SDS011;1433;49.976;8.342;2024-02-21T02:28:08;6.03;;;4.30;;
2850;SDS011;1433;49.976;8.342;2024-02-21T02:30:35;12.10;;;5.00;;
2850;SDS011;1433;49.976;8.342;2024-02-21T02:33:02;10.83;;;4.77;;
2850;SDS011;1433;49.976;8.342;2024-02-21T02:35:31;3.27;;;2.97;;
2850;SDS011;1433;49.976;8.342;2024-02-21T02:37:57;8.40;;;4.43;;
2850;SDS011;1433;49.976;8.342;2024-02-21T02:40:23;4.43;;;4.03;;
2850;SDS011;1433;49.976;8.342;2024-02-21T02:42:50;7.00;;;4.80;;
2850;SDS011;1433;49.976;8.342;2024-02-21T02:45:16;7.47;;;3.80;;
2850;SDS011;1433;49.976;8.342;2024-02-21T02:47:46;10.37;;;4.30;;
2850;SDS011;1433;49.976;8.342;2024-02-21T02:50:12;4.80;;;3.63;;
2850;SDS011;1433;49.976;8.342;2024-02-21T02:52:38;4.80;;;3.90;;
2850;SDS011;1433;49.976;8.342;2024-02-21T02:55:04;7.20;;;3.60;;
2850;SDS011;1433;49.976;8.342;2024-02-21T02:57:31;5.53;;;3.70;;
2850;SDS011;1433;49.976;8.342;2024-02-21T02:59:57;6.70;;;3.70;;
2850;SDS011;1433;49.976;8.342;2024-02-21T03:02:23;9.90;;;3.60;;
2850;SDS011;1433;49.976;8.342;2024-02-21T03:04:49;9.70;;;3.90;;
2850;SDS011;1433;49.976;8.342;2024-02-21T03:07:15;9.03;;;3.60;;
2850;SDS011;1433;49.976;8.342;2024-02-21T03:09:41;7.70;;;3.60;;
2850;SDS011;1433;49.976;8.342;2024-02-21T03:12:08;8.03;;;5.97;;
2850;SDS011;1433;49.976;8.342;2024-02-21T03:14:34;7.43;;;3.80;;
2850;SDS011;1433;49.976;8.342;2024-02-21T03:17:00;6.70;;;4.30;;
2850;SDS011;1433;49.976;8.342;2024-02-21T03:19:27;6.37;;;3.23;;
2850;SDS011;1433;49.976;8.342;2024-02-21T03:21:53;5.20;;;4.00;;
2850;SDS011;1433;49.976;8.342;2024-02-21T03:24:20;11.43;;;5.33;;
2850;SDS011;1433;49.976;8.342;2024-02-21T03:26:46;9.37;;;4.93;;
2850;SDS011;1433;49.976;8.342;2024-02-21T03:29:14;6.37;;;4.60;;
2850;SDS011;1433;49.976;8.342;2024-02-21T03:31:43;9.80;;;5.80;;
2850;SDS011;1433;49.976;8.342;2024-02-21T03:34:12;4.27;;;3.80;;
2850;SDS011;1433;49.976;8.342;2024-02-21T03:36:38;8.50;;;5.63;;
2850;SDS011;1433;49.976;8.342;2024-02-21T03:39:04;9.60;;;4.10;;
2850;SDS011;1433;49.976;8.342;2024-02-21T03:41:30;6.70;;;4.43;;
2850;SDS011;1433;49.976;8.342;2024-02-21T03:43:56;6.10;;;4.60;;
2850;SDS011;1433;49.976;8.342;2024-02-21T03:46:23;5.67;;;4.20;;
2850;SDS011;1433;49.976;8.342;2024-02-21T03:48:50;6.80;;;4.53;;
2850;SDS011;1433;49.976;8.342;2024-02-21T03:51:16;8.33;;;4.83;;
2850;SDS011;1433;49.976;8.342;2024-02-21T03:53:42;5.37;;;4.40;;
2850;SDS011;1433;49.976;8.342;2024-02-21T03:56:08;6.53;;;4.30;;
2850;SDS011;1433;49.976;8.342;2024-02-21T03:58:34;9.90;;;4.10;;
2850;SDS011;1433;49.976;8.342;2024-02-21T04:01:00;7.80;;;4.93;;
2850;SDS011;1433;49.976;8.342;2024-02-21T04:03:27;7.87;;;5.00;;
2850;SDS011;1433;49.976;8.342;2024-02-21T04:05:53;7.50;;;5.13;;
2850;SDS011;1433;49.976;8.342;2024-02-21T04:08:19;9.87;;;4.50;;
2850;SDS011;1433;49.976;8.342;2024-02-21T04:10:45;7.50;;;4.37;;
2850;SDS011;1433;49.976;8.342;2024-02-21T04:13:10;9.97;;;5.20;;
2850;SDS011;1433;49.976;8.342;2024-02-21T04:15:36;7.30;;;3.90;;
2850;SDS011;1433;49.976;8.342;2024-02-21T04:18:02;6.90;;;4.20;;
2850;SDS011;1433;49.976;8.342;2024-02-21T04:20:28;7.80;;;4.47;;
2850;SDS011;1433;49.976;8.342;2024-02-21T04:22:55;6.50;;;4.27;;
2850;SDS011;1433;49.976;8.342;2024-02-21T04:25:21;8.10;;;4.10;;
2850;SDS011;1433;49.976;8.342;2024-02-21T04:27:47;7.13;;;4.30;;
2850;SDS011;1433;49.976;8.342;2024-02-21T04:30:13;9.13;;;4.30;;
2850;SDS011;1433;49.976;8.342;2024-02-21T04:32:40;8.03;;;3.53;;
2850;SDS011;1433;49.976;8.342;2024-02-21T04:35:07;4.23;;;3.63;;
2850;SDS011;1433;49.976;8.342;2024-02-21T04:37:33;6.37;;;3.57;;
2850;SDS011;1433;49.976;8.342;2024-02-21T04:39:59;5.47;;;4.90;;
2850;SDS011;1433;49.976;8.342;2024-02-21T04:42:25;7.77;;;3.17;;
2850;SDS011;1433;49.976;8.342;2024-02-21T04:44:50;5.40;;;4.43;;
2850;SDS011;1433;49.976;8.342;2024-02-21T04:47:17;8.50;;;5.40;;
2850;SDS011;1433;49.976;8.342;2024-02-21T04:49:45;11.90;;;4.80;;
2850;SDS011;1433;49.976;8.342;2024-02-21T04:52:11;5.20;;;4.13;;
2850;SDS011;1433;49.976;8.342;2024-02-21T04:54:37;8.83;;;5.00;;
2850;SDS011;1433;49.976;8.342;2024-02-21T04:57:03;8.97;;;5.20;;
2850;SDS011;1433;49.976;8.342;2024-02-21T04:59:29;8.30;;;5.40;;
2850;SDS011;1433;49.976;8.342;2024-02-21T05:01:55;9.30;;;4.50;;
2850;SDS011;1433;49.976;8.342;2024-02-21T05:04:21;7.70;;;5.07;;
2850;SDS011;1433;49.976;8.342;2024-02-21T05:06:47;10.37;;;5.97;;
2850;SDS011;1433;49.976;8.342;2024-02-21T05:09:13;9.70;;;5.57;;
2850;SDS011;1433;49.976;8.342;2024-02-21T05:11:39;5.40;;;4.90;;
2850;SDS011;1433;49.976;8.342;2024-02-21T05:14:05;7.90;;;5.67;;
2850;SDS011;1433;49.976;8.342;2024-02-21T05:16:32;5.63;;;3.80;;
2850;SDS011;1433;49.976;8.342;2024-02-21T05:18:58;11.17;;;6.40;;
2850;SDS011;1433;49.976;8.342;2024-02-21T05:21:24;9.60;;;5.33;;
2850;SDS011;1433;49.976;8.342;2024-02-21T05:23:50;8.87;;;5.43;;
2850;SDS011;1433;49.976;8.342;2024-02-21T05:26:20;10.53;;;5.57;;
2850;SDS011;1433;49.976;8.342;2024-02-21T05:28:50;10.93;;;5.57;;
2850;SDS011;1433;49.976;8.342;2024-02-21T05:31:20;7.60;;;4.60;;
2850;SDS011;1433;49.976;8.342;2024-02-21T05:33:49;12.00;;;6.50;;
2850;SDS011;1433;49.976;8.342;2024-02-21T05:36:15;9.23;;;5.67;;
2850;SDS011;1433;49.976;8.342;2024-02-21T05:38:40;7.43;;;5.10;;
2850;SDS011;1433;49.976;8.342;2024-02-21T05:41:06;6.10;;;4.87;;
2850;SDS011;1433;49.976;8.342;2024-02-21T05:43:32;7.20;;;6.40;;
2850;SDS011;1433;49.976;8.342;2024-02-21T05:45:58;7.97;;;5.03;;
2850;SDS011;1433;49.976;8.342;2024-02-21T05:48:24;9.77;;;5.97;;
2850;SDS011;1433;49.976;8.342;2024-02-21T05:50:50;5.70;;;5.10;;
2850;SDS011;1433;49.976;8.342;2024-02-21T05:53:16;7.93;;;5.60;;
2850;SDS011;1433;49.976;8.342;2024-02-21T05:55:42;8.07;;;6.00;;
2850;SDS011;1433;49.976;8.342;2024-02-21T05:58:08;10.37;;;6.33;;
2850;SDS011;1433;49.976;8.342;2024-02-21T06:00:38;9.23;;;6.27;;
2850;SDS011;1433;49.976;8.342;2024-02-21T06:03:04;9.03;;;5.80;;
2850;SDS011;1433;49.976;8.342;2024-02-21T06:05:30;6.23;;;5.37;;
2850;SDS011;1433;49.976;8.342;2024-02-21T06:07:57;9.60;;;5.30;;
2850;SDS011;1433;49.976;8.342;2024-02-21T06:10:23;6.90;;;5.27;;
2850;SDS011;1433;49.976;8.342;2024-02-21T06:12:48;10.63;;;5.70;;
2850;SDS011;1433;49.976;8.342;2024-02-21T06:15:14;12.30;;;8.20;;
2850;SDS011;1433;49.976;8.342;2024-02-21T06:17:40;8.00;;;4.87;;
2850;SDS011;1433;49.976;8.342;2024-02-21T06:20:06;12.07;;;6.33;;
2850;SDS011;1433;49.976;8.342;2024-02-21T06:22:33;7.60;;;5.50;;
2850;SDS011;1433;49.976;8.342;2024-02-21T06:24:59;10.43;;;6.33;;
2850;SDS011;1433;49.976;8.342;2024-02-21T06:27:27;13.50;;;4.93;;
2850;SDS011;1433;49.976;8.342;2024-02-21T06:29:53;9.13;;;6.33;;
2850;SDS011;1433;49.976;8.342;2024-02-21T06:32:18;8.93;;;5.60;;
2850;SDS011;1433;49.976;8.342;2024-02-21T06:34:44;10.53;;;6.03;;
2850;SDS011;1433;49.976;8.342;2024-02-21T06:37:10;12.83;;;5.90;;
2850;SDS011;1433;49.976;8.342;2024-02-21T06:39:37;17.23;;;5.70;;
2850;SDS011;1433;49.976;8.342;2024-02-21T06:42:03;10.73;;;6.43;;
2850;SDS011;1433;49.976;8.342;2024-02-21T06:44:29;7.80;;;5.93;;
2850;SDS011;1433;49.976;8.342;2024-02-21T06:46:57;9.17;;;5.60;;
2850;SDS011;1433;49.976;8.342;2024-02-21T06:49:23;11.13;;;6.90;;
2850;SDS011;1433;49.976;8.342;2024-02-21T06:51:49;9.57;;;6.77;;
2850;SDS011;1433;49.976;8.342;2024-02-21T06:54:15;8.07;;;6.10;;
2850;SDS011;1433;49.976;8.342;2024-02-21T06:56:41;12.70;;;6.47;;
2850;SDS011;1433;49.976;8.342;2024-02-21T06:59:07;8.57;;;6.80;;
2850;SDS011;1433;49.976;8.342;2024-02-21T07:01:33;13.60;;;6.80;;
2850;SDS011;1433;49.976;8.342;2024-02-21T07:03:59;9.23;;;6.83;;
2850;SDS011;1433;49.976;8.342;2024-02-21T07:06:24;7.40;;;5.43;;
2850;SDS011;1433;49.976;8.342;2024-02-21T07:08:50;10.90;;;6.50;;
2850;SDS011;1433;49.976;8.342;2024-02-21T07:11:16;10.30;;;5.90;;
2850;SDS011;1433;49.976;8.342;2024-02-21T07:13:42;7.30;;;5.77;;
2850;SDS011;1433;49.976;8.342;2024-02-21T07:16:08;7.87;;;5.63;;
2850;SDS011;1433;49.976;8.342;2024-02-21T07:18:34;10.60;;;7.80;;
2850;SDS011;1433;49.976;8.342;2024-02-21T07:21:00;14.43;;;6.03;;
2850;SDS011;1433;49.976;8.342;2024-02-21T07:23:26;12.77;;;6.07;;
2850;SDS011;1433;49.976;8.342;2024-02-21T07:25:51;8.87;;;6.27;;
2850;SDS011;1433;49.976;8.342;2024-02-21T07:28:17;12.80;;;7.07;;
2850;SDS011;1433;49.976;8.342;2024-02-21T07:30:43;7.50;;;5.20;;
2850;SDS011;1433;49.976;8.342;2024-02-21T07:33:09;14.70;;;7.70;;
2850;SDS011;1433;49.976;8.342;2024-02-21T07:35:35;8.67;;;6.73;;
2850;SDS011;1433;49.976;8.342;2024-02-21T07:38:05;9.20;;;5.77;;
2850;SDS011;1433;49.976;8.342;2024-02-21T07:40:32;9.57;;;6.70;;
2850;SDS011;1433;49.976;8.342;2024-02-21T07:42:58;9.90;;;6.20;;
2850;SDS011;1433;49.976;8.342;2024-02-21T07:45:24;9.87;;;5.67;;
2850;SDS011;1433;49.976;8.342;2024-02-21T07:47:50;13.30;;;6.03;;
2850;SDS011;1433;49.976;8.342;2024-02-21T07:50:16;8.77;;;5.70;;
2850;SDS011;1433;49.976;8.342;2024-02-21T07:52:42;7.50;;;5.40;;
2850;SDS011;1433;49.976;8.342;2024-02-21T07:55:08;7.43;;;6.53;;
2850;SDS011;1433;49.976;8.342;2024-02-21T07:57:35;7.13;;;5.20;;
2850;SDS011;1433;49.976;8.342;2024-02-21T08:00:02;7.10;;;4.97;;
2850;SDS011;1433;49.976;8.342;2024-02-21T08:02:37;8.47;;;5.37;;
2850;SDS011;1433;49.976;8.342;2024-02-21T08:05:03;6.60;;;4.80;;
2850;SDS011;1433;49.976;8.342;2024-02-21T08:07:29;6.60;;;4.40;;
2850;SDS011;1433;49.976;8.342;2024-02-21T08:09:56;6.80;;;3.97;;
2850;SDS011;1433;49.976;8.342;2024-02-21T08:12:22;7.93;;;4.20;;
2850;SDS011;1433;49.976;8.342;2024-02-21T08:14:48;6.20;;;5.00;;
2850;SDS011;1433;49.976;8.342;2024-02-21T08:17:13;9.27;;;4.53;;
2850;SDS011;1433;49.976;8.342;2024-02-21T08:19:39;9.40;;;4.70;;
2850;SDS011;1433;49.976;8.342;2024-02-21T08:22:05;19.37;;;4.47;;
2850;SDS011;1433;49.976;8.342;2024-02-21T08:24:32;7.43;;;4.03;;
2850;SDS011;1433;49.976;8.342;2024-02-21T08:26:57;7.63;;;4.47;;
2850;SDS011;1433;49.976;8.342;2024-02-21T08:29:23;8.13;;;4.30;;
2850;SDS011;1433;49.976;8.342;2024-02-21T08:31:49;7.53;;;3.57;;
2850;SDS011;1433;49.976;8.342;2024-02-21T08:34:15;8.63;;;4.90;;
2850;SDS011;1433;49.976;8.342;2024-02-21T08:36:41;14.13;;;4.47;;
2850;SDS011;1433;49.976;8.342;2024-02-21T08:39:08;12.30;;;3.93;;
2850;SDS011;1433;49.976;8.342;2024-02-21T08:41:34;10.13;;;3.90;;
2850;SDS011;1433;49.976;8.342;2024-02-21T08:44:00;5.50;;;4.03;;
2850;SDS011;1433;49.976;8.342;2024-02-21T08:46:29;5.63;;;3.43;;
2850;SDS011;1433;49.976;8.342;2024-02-21T08:48:55;5.60;;;5.07;;
2850;SDS011;1433;49.976;8.342;2024-02-21T08:51:21;7.33;;;3.43;;
2850;SDS011;1433;49.976;8.342;2024-02-21T08:53:47;6.77;;;4.47;;
2850;SDS011;1433;49.976;8.342;2024-02-21T08:56:14;9.07;;;3.93;;
2850;SDS011;1433;49.976;8.342;2024-02-21T08:58:41;9.27;;;4.83;;
2850;SDS011;1433;49.976;8.342;2024-02-21T09:01:07;5.97;;;4.50;;
2850;SDS011;1433;49.976;8.342;2024-02-21T09:03:36;8.03;;;4.90;;
2850;SDS011;1433;49.976;8.342;2024-02-21T09:06:06;7.63;;;4.97;;
2850;SDS011;1433;49.976;8.342;2024-02-21T09:08:33;7.17;;;4.53;;
2850;SDS011;1433;49.976;8.342;2024-02-21T09:11:05;4.97;;;4.50;;
2850;SDS011;1433;49.976;8.342;2024-02-21T09:13:31;5.57;;;4.47;;
2850;SDS011;1433;49.976;8.342;2024-02-21T09:15:57;7.63;;;5.33;;
2850;SDS011;1433;49.976;8.342;2024-02-21T09:18:23;9.93;;;4.53;;
2850;SDS011;1433;49.976;8.342;2024-02-21T09:20:49;7.93;;;6.53;;
2850;SDS011;1433;49.976;8.342;2024-02-21T09:23:15;5.40;;;4.33;;
2850;SDS011;1433;49.976;8.342;2024-02-21T09:25:41;7.67;;;5.97;;
2850;SDS011;1433;49.976;8.342;2024-02-21T09:28:08;15.27;;;5.27;;
2850;SDS011;1433;49.976;8.342;2024-02-21T09:30:35;5.53;;;5.10;;
2850;SDS011;1433;49.976;8.342;2024-02-21T09:33:03;5.33;;;4.83;;
2850;SDS011;1433;49.976;8.342;2024-02-21T09:35:30;6.47;;;4.43;;
2850;SDS011;1433;49.976;8.342;2024-02-21T09:37:58;5.70;;;4.30;;
2850;SDS011;1433;49.976;8.342;2024-02-21T09:40:25;4.80;;;4.30;;
2850;SDS011;1433;49.976;8.342;2024-02-21T09:42:55;5.80;;;4.63;;
2850;SDS011;1433;49.976;8.342;2024-02-21T09:45:32;7.80;;;5.73;;
2850;SDS011;1433;49.976;8.342;2024-02-21T09:50:56;8.87;;;3.40;;
2850;SDS011;1433;49.976;8.342;2024-02-21T09:53:24;4.03;;;3.63;;
2850;SDS011;1433;49.976;8.342;2024-02-21T09:55:50;8.10;;;3.40;;
2850;SDS011;1433;49.976;8.342;2024-02-21T09:58:17;7.30;;;3.80;;
2850;SDS011;1433;49.976;8.342;2024-02-21T10:00:43;6.33;;;4.00;;
2850;SDS011;1433;49.976;8.342;2024-02-21T10:03:09;5.07;;;3.73;;
2850;SDS011;1433;49.976;8.342;2024-02-21T10:05:36;13.77;;;4.30;;
2850;SDS011;1433;49.976;8.342;2024-02-21T10:08:03;7.27;;;4.47;;
2850;SDS011;1433;49.976;8.342;2024-02-21T10:10:29;4.60;;;4.17;;
2850;SDS011;1433;49.976;8.342;2024-02-21T10:13:06;7.10;;;3.40;;
2850;SDS011;1433;49.976;8.342;2024-02-21T10:15:33;3.83;;;3.53;;
2850;SDS011;1433;49.976;8.342;2024-02-21T10:17:59;7.47;;;3.40;;
2850;SDS011;1433;49.976;8.342;2024-02-21T10:20:28;7.83;;;5.63;;
2850;SDS011;1433;49.976;8.342;2024-02-21T10:23:04;6.63;;;3.80;;
2850;SDS011;1433;49.976;8.342;2024-02-21T10:25:34;7.43;;;4.33;;
2850;SDS011;1433;49.976;8.342;2024-02-21T10:28:03;6.07;;;4.20;;
2850;SDS011;1433;49.976;8.342;2024-02-21T10:30:30;3.43;;;3.13;;
2850;SDS011;1433;49.976;8.342;2024-02-21T10:32:56;5.47;;;4.50;;
2850;SDS011;1433;49.976;8.342;2024-02-21T10:35:26;6.70;;;3.67;;
2850;SDS011;1433;49.976;8.342;2024-02-21T10:37:57;4.30;;;3.93;;
2850;SDS011;1433;49.976;8.342;2024-02-21T10:40:24;4.07;;;3.70;;
2850;SDS011;1433;49.976;8.342;2024-02-21T10:42:59;4.37;;;3.97;;
2850;SDS011;1433;49.976;8.342;2024-02-21T10:45:35;4.93;;;3.70;;
2850;SDS011;1433;49.976;8.342;2024-02-21T10:50:59;6.80;;;3.90;;
2850;SDS011;1433;49.976;8.342;2024-02-21T10:53:44;4.40;;;4.10;;
2850;SDS011;1433;49.976;8.342;2024-02-21T10:59:01;4.70;;;3.80;;
2850;SDS011;1433;49.976;8.342;2024-02-21T11:01:29;5.93;;;3.73;;
2850;SDS011;1433;49.976;8.342;2024-02-21T11:04:07;5.93;;;4.20;;
2850;SDS011;1433;49.976;8.342;2024-02-21T11:06:36;6.90;;;4.50;;
2850;SDS011;1433;49.976;8.342;2024-02-21T11:14:17;5.97;;;3.93;;
2850;SDS011;1433;49.976;8.342;2024-02-21T11:16:44;6.10;;;3.30;;
2850;SDS011;1433;49.976;8.342;2024-02-21T11:19:24;10.17;;;3.23;;
2850;SDS011;1433;49.976;8.342;2024-02-21T11:21:52;5.30;;;3.80;;
2850;SDS011;1433;49.976;8.342;2024-02-21T11:24:29;4.73;;;3.10;;
2850;SDS011;1433;49.976;8.342;2024-02-21T11:29:45;5.13;;;3.67;;
2850;SDS011;1433;49.976;8.342;2024-02-21T11:32:14;3.63;;;2.73;;
2850;SDS011;1433;49.976;8.342;2024-02-21T11:34:52;5.40;;;4.10;;
2850;SDS011;1433;49.976;8.342;2024-02-21T11:37:26;7.20;;;3.70;;
2850;SDS011;1433;49.976;8.342;2024-02-21T11:39:57;8.47;;;3.87;;
2850;SDS011;1433;49.976;8.342;2024-02-21T11:42:26;6.27;;;3.27;;
2850;SDS011;1433;49.976;8.342;2024-02-21T11:44:53;3.20;;;3.00;;
2850;SDS011;1433;49.976;8.342;2024-02-21T11:47:22;4.13;;;3.37;;
2850;SDS011;1433;49.976;8.342;2024-02-21T11:49:48;2.90;;;2.57;;
2850;SDS011;1433;49.976;8.342;2024-02-21T11:52:15;11.33;;;3.77;;
2850;SDS011;1433;49.976;8.342;2024-02-21T11:54:44;4.40;;;3.80;;
2850;SDS011;1433;49.976;8.342;2024-02-21T11:57:10;8.90;;;3.63;;
2850;SDS011;1433;49.976;8.342;2024-02-21T11:59:40;4.87;;;3.53;;
2850;SDS011;1433;49.976;8.342;2024-02-21T12:02:06;4.17;;;3.80;;
2850;SDS011;1433;49.976;8.342;2024-02-21T12:04:32;4.60;;;3.47;;
2850;SDS011;1433;49.976;8.342;2024-02-21T12:06:59;3.50;;;3.20;;
2850;SDS011;1433;49.976;8.342;2024-02-21T12:09:25;4.07;;;3.70;;
2850;SDS011;1433;49.976;8.342;2024-02-21T12:12:01;4.67;;;3.57;;
2850;SDS011;1433;49.976;8.342;2024-02-21T12:14:30;6.13;;;4.17;;
2850;SDS011;1433;49.976;8.342;2024-02-21T12:16:58;8.00;;;4.57;;
2850;SDS011;1433;49.976;8.342;2024-02-21T12:19:24;9.33;;;4.07;;
2850;SDS011;1433;49.976;8.342;2024-02-21T12:21:50;3.90;;;3.60;;
2850;SDS011;1433;49.976;8.342;2024-02-21T12:24:20;6.93;;;5.30;;
2850;SDS011;1433;49.976;8.342;2024-02-21T12:26:51;4.93;;;3.60;;
2850;SDS011;1433;49.976;8.342;2024-02-21T12:29:24;9.17;;;5.10;;
2850;SDS011;1433;49.976;8.342;2024-02-21T12:31:50;8.10;;;3.87;;
2850;SDS011;1433;49.976;8.342;2024-02-21T12:34:17;5.60;;;3.10;;
2850;SDS011;1433;49.976;8.342;2024-02-21T12:36:44;4.97;;;4.00;;
2850;SDS011;1433;49.976;8.342;2024-02-21T12:39:12;5.40;;;4.80;;
2850;SDS011;1433;49.976;8.342;2024-02-21T12:41:38;4.17;;;3.80;;
2850;SDS011;1433;49.976;8.342;2024-02-21T12:44:06;3.00;;;2.80;;
2850;SDS011;1433;49.976;8.342;2024-02-21T12:46:33;4.80;;;3.40;;
2850;SDS011;1433;49.976;8.342;2024-02-21T12:49:00;4.47;;;2.87;;
2850;SDS011;1433;49.976;8.342;2024-02-21T12:51:30;5.47;;;2.80;;
2850;SDS011;1433;49.976;8.342;2024-02-21T12:53:56;5.63;;;3.73;;
2850;SDS011;1433;49.976;8.342;2024-02-21T12:56:24;4.43;;;4.03;;
2850;SDS011;1433;49.976;8.342;2024-02-21T12:58:52;8.77;;;4.50;;
2850;SDS011;1433;49.976;8.342;2024-02-21T13:01:18;3.83;;;3.53;;
2850;SDS011;1433;49.976;8.342;2024-02-21T13:03:44;4.73;;;4.07;;
2850;SDS011;1433;49.976;8.342;2024-02-21T13:06:11;4.03;;;3.57;;
2850;SDS011;1433;49.976;8.342;2024-02-21T13:08:38;5.53;;;3.40;;
2850;SDS011;1433;49.976;8.342;2024-02-21T13:11:04;8.17;;;4.40;;
2850;SDS011;1433;49.976;8.342;2024-02-21T13:13:31;3.43;;;2.67;;
2850;SDS011;1433;49.976;8.342;2024-02-21T13:15:57;6.53;;;3.10;;
2850;SDS011;1433;49.976;8.342;2024-02-21T13:18:24;5.40;;;3.20;;
2850;SDS011;1433;49.976;8.342;2024-02-21T13:20:50;5.60;;;5.17;;
2850;SDS011;1433;49.976;8.342;2024-02-21T13:23:15;6.23;;;4.60;;
2850;SDS011;1433;49.976;8.342;2024-02-21T13:25:41;8.33;;;4.53;;
2850;SDS011;1433;49.976;8.342;2024-02-21T13:28:07;5.77;;;3.47;;
2850;SDS011;1433;49.976;8.342;2024-02-21T13:30:34;3.00;;;2.70;;
2850;SDS011;1433;49.976;8.342;2024-02-21T13:33:00;4.33;;;3.00;;
2850;SDS011;1433;49.976;8.342;2024-02-21T13:35:28;3.80;;;2.97;;
2850;SDS011;1433;49.976;8.342;2024-02-21T13:37:54;3.30;;;3.00;;
2850;SDS011;1433;49.976;8.342;2024-02-21T13:40:20;6.10;;;3.87;;
2850;SDS011;1433;49.976;8.342;2024-02-21T13:42:46;4.70;;;3.43;;
2850;SDS011;1433;49.976;8.342;2024-02-21T13:45:13;8.33;;;3.30;;
2850;SDS011;1433;49.976;8.342;2024-02-21T13:47:39;4.83;;;3.33;;
2850;SDS011;1433;49.976;8.342;2024-02-21T13:50:05;4.50;;;3.87;;
2850;SDS011;1433;49.976;8.342;2024-02-21T13:52:36;4.60;;;3.47;;
2850;SDS011;1433;49.976;8.342;2024-02-21T13:55:02;9.60;;;3.53;;
2850;SDS011;1433;49.976;8.342;2024-02-21T13:57:28;6.17;;;3.63;;
2850;SDS011;1433;49.976;8.342;2024-02-21T13:59:55;6.70;;;3.50;;
2850;SDS011;1433;49.976;8.342;2024-02-21T14:02:21;4.63;;;4.27;;
2850;SDS011;1433;49.976;8.342;2024-02-21T14:04:47;4.50;;;2.93;;
2850;SDS011;1433;49.976;8.342;2024-02-21T14:07:12;3.13;;;2.83;;
2850;SDS011;1433;49.976;8.342;2024-02-21T14:09:38;3.73;;;3.43;;
2850;SDS011;1433;49.976;8.342;2024-02-21T14:12:04;5.90;;;3.50;;
2850;SDS011;1433;49.976;8.342;2024-02-21T14:14:34;3.93;;;2.67;;
2850;SDS011;1433;49.976;8.342;2024-02-21T14:17:01;11.13;;;3.60;;
2850;SDS011;1433;49.976;8.342;2024-02-21T14:19:28;3.30;;;3.10;;
2850;SDS011;1433;49.976;8.342;2024-02-21T14:21:55;5.53;;;3.20;;
2850;SDS011;1433;49.976;8.342;2024-02-21T14:24:22;3.63;;;3.33;;
2850;SDS011;1433;49.976;8.342;2024-02-21T14:26:48;6.17;;;3.40;;
2850;SDS011;1433;49.976;8.342;2024-02-21T14:29:14;4.77;;;3.57;;
2850;SDS011;1433;49.976;8.342;2024-02-21T14:31:40;5.57;;;4.97;;
2850;SDS011;1433;49.976;8.342;2024-02-21T14:34:06;5.77;;;2.60;;
2850;SDS011;1433;49.976;8.342;2024-02-21T14:36:33;3.97;;;2.77;;
2850;SDS011;1433;49.976;8.342;2024-02-21T14:38:59;8.20;;;3.40;;
2850;SDS011;1433;49.976;8.342;2024-02-21T14:41:24;2.33;;;2.17;;
2850;SDS011;1433;49.976;8.342;2024-02-21T14:43:50;4.50;;;3.20;;
2850;SDS011;1433;49.976;8.342;2024-02-21T14:46:16;4.30;;;3.67;;
2850;SDS011;1433;49.976;8.342;2024-02-21T14:48:43;3.97;;;2.50;;
2850;SDS011;1433;49.976;8.342;2024-02-21T14:51:10;4.67;;;3.60;;
2850;SDS011;1433;49.976;8.342;2024-02-21T14:53:37;6.90;;;3.10;;
2850;SDS011;1433;49.976;8.342;2024-02-21T14:56:04;4.73;;;4.43;;
2850;SDS011;1433;49.976;8.342;2024-02-21T14:58:32;6.30;;;2.73;;
2850;SDS011;1433;49.976;8.342;2024-02-21T15:00:58;7.90;;;3.70;;
2850;SDS011;1433;49.976;8.342;2024-02-21T15:03:23;3.77;;;2.80;;
2850;SDS011;1433;49.976;8.342;2024-02-21T15:05:52;4.40;;;1.87;;
2850;SDS011;1433;49.976;8.342;2024-02-21T15:08:19;9.40;;;2.50;;
2850;SDS011;1433;49.976;8.342;2024-02-21T15:10:45;8.13;;;2.27;;
2850;SDS011;1433;49.976;8.342;2024-02-21T15:13:11;2.23;;;1.80;;
2850;SDS011;1433;49.976;8.342;2024-02-21T15:15:36;2.57;;;2.23;;
2850;SDS011;1433;49.976;8.342;2024-02-21T15:18:02;5.27;;;2.30;;
2850;SDS011;1433;49.976;8.342;2024-02-21T15:20:29;3.83;;;2.60;;
2850;SDS011;1433;49.976;8.342;2024-02-21T15:22:55;4.10;;;2.63;;
2850;SDS011;1433;49.976;8.342;2024-02-21T15:25:21;9.77;;;3.80;;
2850;SDS011;1433;49.976;8.342;2024-02-21T15:27:47;3.23;;;2.20;;
2850;SDS011;1433;49.976;8.342;2024-02-21T15:30:13;7.10;;;3.00;;